createdAt,value
2018-03-04T00:42:47.633Z,31.00
2018-03-04T00:45:14.069Z,33.10
2018-03-04T00:47:40.401Z,23.48
2018-03-04T00:50:06.814Z,30.12
2018-03-04T00:52:37.605Z,22.83
2018-03-04T00:55:03.964Z,28.20
2018-03-04T00:57:30.396Z,31.30
2018-03-04T00:59:57.603Z,27.20
2018-03-04T01:02:24.087Z,25.52
2018-03-04T01:04:50.548Z,26.60
2018-03-04T01:07:16.964Z,28.75
2018-03-04T01:09:43.301Z,26.83
2018-03-04T01:12:09.605Z,33.10
2018-03-04T01:14:36.689Z,27.33
2018-03-04T01:17:03.136Z,25.85
2018-03-04T01:19:29.476Z,33.83
2018-03-04T01:21:55.820Z,31.60
2018-03-04T01:24:22.137Z,30.10
2018-03-04T01:26:48.518Z,26.17
2018-03-04T01:29:14.833Z,27.87
2018-03-04T01:31:41.908Z,28.05
2018-03-04T01:34:08.260Z,27.20
2018-03-04T01:36:35.339Z,30.08
2018-03-04T01:39:01.687Z,20.67
2018-03-04T01:41:28.839Z,27.42
2018-03-04T01:43:55.864Z,29.42
2018-03-04T01:46:22.162Z,31.45
2018-03-04T01:48:48.452Z,26.95
2018-03-04T01:51:15.716Z,18.12
2018-03-04T01:53:42.061Z,24.98
2018-03-04T01:56:08.424Z,28.45
2018-03-04T01:58:34.740Z,27.87
2018-03-04T02:01:05.114Z,29.52
2018-03-04T02:03:32.163Z,27.80
2018-03-04T02:05:58.521Z,29.77
2018-03-04T02:08:24.850Z,31.27
2018-03-04T02:10:51.169Z,27.42
2018-03-04T02:13:17.535Z,27.48
2018-03-04T02:15:43.899Z,22.08
2018-03-04T02:18:14.325Z,26.30
2018-03-04T02:20:40.709Z,32.70
2018-03-04T02:23:07.009Z,27.35
2018-03-04T02:25:34.148Z,33.25
2018-03-04T02:28:00.521Z,31.48
2018-03-04T02:30:26.915Z,27.95
2018-03-04T02:32:54.090Z,30.50
2018-03-04T02:35:22.442Z,28.10
2018-03-04T02:37:49.464Z,30.75
2018-03-04T02:40:15.828Z,32.00
2018-03-04T02:42:42.879Z,33.35
2018-03-04T02:45:09.990Z,24.80
2018-03-04T02:47:36.293Z,34.85
2018-03-04T02:50:02.684Z,32.00
2018-03-04T02:52:37.697Z,31.58
2018-03-04T02:55:04.034Z,27.05
2018-03-04T02:57:30.405Z,29.50
2018-03-04T02:59:56.709Z,31.17
2018-03-04T03:02:23.803Z,31.15
2018-03-04T03:04:50.120Z,26.55
2018-03-04T03:07:16.509Z,27.40
2018-03-04T03:09:42.822Z,29.15
2018-03-04T03:12:09.140Z,30.73
2018-03-04T03:14:35.509Z,29.37
2018-03-04T03:17:04.636Z,38.13
2018-03-04T03:19:30.981Z,27.90
2018-03-04T03:21:57.316Z,28.42
2018-03-04T03:24:23.619Z,28.90
2018-03-04T03:26:52.044Z,27.33
2018-03-04T03:29:18.380Z,32.40
2018-03-04T03:31:44.860Z,30.85
2018-03-04T03:34:11.863Z,32.95
2018-03-04T03:36:38.253Z,32.53
2018-03-04T03:39:04.628Z,27.98
2018-03-04T03:41:30.964Z,35.08
2018-03-04T03:43:57.259Z,31.60
2018-03-04T03:46:23.565Z,35.17
2018-03-04T03:48:49.856Z,35.20
2018-03-04T03:51:17.177Z,33.88
2018-03-04T03:53:43.456Z,28.48
2018-03-04T03:56:10.562Z,34.63
2018-03-04T03:58:36.894Z,31.23
2018-03-04T04:01:03.245Z,38.15
2018-03-04T04:03:29.560Z,33.72
2018-03-04T04:05:55.944Z,27.98
2018-03-04T04:08:23.305Z,35.72
2018-03-04T04:10:49.644Z,33.30
2018-03-04T04:13:16.001Z,40.50
2018-03-04T04:15:42.480Z,35.03
2018-03-04T04:18:09.602Z,32.45
2018-03-04T04:20:35.952Z,32.78
2018-03-04T04:23:03.024Z,38.50
2018-03-04T04:25:29.365Z,32.15
2018-03-04T04:27:55.702Z,37.85
2018-03-04T04:30:22.045Z,32.78
2018-03-04T04:32:48.374Z,35.05
2018-03-04T04:35:15.023Z,32.88
2018-03-04T04:37:41.372Z,37.08
2018-03-04T04:40:07.727Z,38.63
2018-03-04T04:42:34.840Z,38.40
2018-03-04T04:45:01.152Z,35.03
2018-03-04T04:47:27.468Z,38.90
2018-03-04T04:49:53.864Z,39.58
2018-03-04T04:52:20.960Z,37.40
2018-03-04T04:54:47.369Z,36.45
2018-03-04T04:57:13.700Z,40.67
2018-03-04T04:59:40.020Z,34.75
2018-03-04T05:02:06.428Z,35.35
2018-03-04T05:04:32.823Z,31.87
2018-03-04T05:06:59.140Z,42.28
2018-03-04T05:09:26.201Z,33.95
2018-03-04T05:11:52.562Z,36.65
2018-03-04T05:14:18.903Z,53.65
2018-03-04T05:16:46.661Z,42.20
2018-03-04T05:19:13.020Z,42.80
2018-03-04T05:21:40.324Z,36.15
2018-03-04T05:24:06.741Z,42.80
2018-03-04T05:26:33.110Z,38.83
2018-03-04T05:28:59.448Z,40.75
2018-03-04T05:31:25.732Z,41.67
2018-03-04T05:33:52.111Z,39.75
2018-03-04T05:36:21.755Z,38.95
2018-03-04T05:38:48.092Z,41.67
2018-03-04T05:41:14.368Z,38.70
2018-03-04T05:43:40.680Z,42.00
2018-03-04T05:46:07.038Z,39.03
2018-03-04T05:48:33.367Z,39.92
2018-03-04T05:50:59.719Z,45.30
2018-03-04T05:53:26.752Z,39.05
2018-03-04T05:55:53.122Z,38.67
2018-03-04T05:58:19.445Z,32.33
2018-03-04T06:00:45.831Z,45.25
2018-03-04T06:03:12.160Z,30.85
2018-03-04T06:05:38.573Z,42.20
2018-03-04T06:08:04.920Z,36.25
2018-03-04T06:10:31.293Z,41.13
2018-03-04T06:12:57.629Z,47.95
2018-03-04T06:15:23.924Z,39.45
2018-03-04T06:17:50.233Z,44.28
2018-03-04T06:20:16.584Z,50.83
2018-03-04T06:22:42.972Z,47.85
2018-03-04T06:25:09.353Z,45.08
2018-03-04T06:27:35.684Z,45.92
2018-03-04T06:30:02.088Z,44.03
2018-03-04T06:32:28.421Z,36.20
2018-03-04T06:34:54.780Z,41.13
2018-03-04T06:37:21.108Z,43.50
2018-03-04T06:39:47.554Z,43.40
2018-03-04T06:42:14.631Z,52.60
2018-03-04T06:44:41.863Z,45.92
2018-03-04T06:47:08.187Z,44.13
2018-03-04T06:49:36.291Z,59.20
2018-03-04T06:52:02.632Z,49.67
2018-03-04T06:54:28.971Z,48.28
2018-03-04T06:56:55.505Z,49.58
2018-03-04T06:59:21.887Z,42.58
2018-03-04T07:01:48.943Z,46.53
2018-03-04T07:04:15.312Z,43.65
2018-03-04T07:06:41.628Z,46.08
2018-03-04T07:09:07.954Z,53.55
2018-03-04T07:11:35.327Z,45.55
2018-03-04T07:14:01.668Z,44.55
2018-03-04T07:16:28.035Z,46.22
2018-03-04T07:18:55.136Z,46.33
2018-03-04T07:21:21.425Z,47.13
2018-03-04T07:23:48.529Z,47.35
2018-03-04T07:26:15.175Z,51.75
2018-03-04T07:28:43.572Z,43.55
2018-03-04T07:31:09.872Z,40.55
2018-03-04T07:33:36.291Z,41.10
2018-03-04T07:36:03.082Z,41.90
2018-03-04T07:38:29.417Z,50.78
2018-03-04T07:40:57.520Z,44.67
2018-03-04T07:43:23.861Z,50.30
2018-03-04T07:45:50.371Z,40.25
2018-03-04T07:48:16.783Z,45.40
2018-03-04T07:50:43.111Z,45.78
2018-03-04T07:53:09.444Z,48.00
2018-03-04T07:55:37.543Z,45.72
2018-03-04T07:58:04.749Z,49.95
2018-03-04T08:00:31.088Z,47.78
2018-03-04T08:02:57.438Z,49.08
2018-03-04T08:05:23.872Z,46.67
2018-03-04T08:07:51.133Z,41.78
2018-03-04T08:10:18.230Z,48.03
2018-03-04T08:12:44.867Z,51.80
2018-03-04T08:15:11.279Z,50.22
2018-03-04T08:17:37.682Z,53.53
2018-03-04T08:20:07.137Z,45.42
2018-03-04T08:22:33.488Z,49.63
2018-03-04T08:25:13.886Z,44.90
2018-03-04T08:27:52.369Z,48.85
2018-03-04T08:30:18.734Z,40.25
2018-03-04T08:32:45.457Z,45.78
2018-03-04T08:35:11.876Z,49.53
2018-03-04T08:37:38.174Z,45.03
2018-03-04T08:40:04.576Z,41.80
2018-03-04T08:42:31.019Z,46.15
2018-03-04T08:44:57.423Z,49.90
2018-03-04T08:47:25.514Z,35.55
2018-03-04T08:49:51.845Z,50.10
2018-03-04T08:52:18.123Z,42.28
2018-03-04T08:54:45.661Z,45.25
2018-03-04T08:57:12.211Z,58.92
2018-03-04T08:59:39.363Z,50.75
2018-03-04T09:02:05.784Z,47.72
2018-03-04T09:04:32.149Z,43.30
2018-03-04T09:06:59.271Z,52.80
2018-03-04T09:09:25.561Z,53.90
2018-03-04T09:11:53.879Z,43.83
2018-03-04T09:14:20.213Z,48.78
2018-03-04T09:16:46.617Z,49.85
2018-03-04T09:19:13.011Z,51.72
2018-03-04T09:21:40.073Z,49.65
2018-03-04T09:24:06.497Z,48.92
2018-03-04T09:26:32.855Z,51.55
2018-03-04T09:29:00.340Z,46.10
2018-03-04T09:31:26.667Z,49.00
2018-03-04T09:33:53.000Z,48.70
2018-03-04T09:36:19.394Z,54.13
2018-03-04T09:38:46.784Z,49.65
2018-03-04T09:41:13.212Z,48.97
2018-03-04T09:43:40.619Z,51.35
2018-03-04T09:46:07.882Z,50.45
2018-03-04T09:48:34.838Z,58.10
2018-03-04T09:51:01.304Z,45.65
2018-03-04T09:53:27.717Z,54.72
2018-03-04T09:55:54.258Z,47.50
2018-03-04T09:58:20.836Z,55.78
2018-03-04T10:00:47.322Z,64.87
2018-03-04T10:03:14.586Z,48.72
2018-03-04T10:05:40.984Z,58.42
2018-03-04T10:08:07.365Z,43.83
2018-03-04T10:10:33.734Z,52.53
2018-03-04T10:13:00.057Z,53.08
2018-03-04T10:15:27.163Z,49.35
2018-03-04T10:17:53.497Z,55.95
2018-03-04T10:20:21.048Z,51.58
2018-03-04T10:22:47.364Z,55.28
2018-03-04T10:25:13.827Z,46.35
2018-03-04T10:27:40.104Z,53.63
2018-03-04T10:30:06.404Z,54.95
2018-03-04T10:32:33.456Z,53.58
2018-03-04T10:35:00.005Z,51.63
2018-03-04T10:37:27.423Z,54.30
2018-03-04T10:39:54.073Z,52.42
2018-03-04T10:42:20.424Z,60.00
2018-03-04T10:44:46.776Z,48.15
2018-03-04T10:47:13.255Z,53.78
2018-03-04T10:49:39.634Z,58.58
2018-03-04T10:52:06.130Z,47.10
2018-03-04T10:54:32.670Z,50.57
2018-03-04T10:57:00.959Z,51.93
2018-03-04T10:59:27.283Z,59.10
2018-03-04T11:02:00.382Z,47.93
2018-03-04T11:04:26.740Z,50.17
2018-03-04T11:06:53.109Z,49.80
2018-03-04T11:09:19.456Z,58.57
2018-03-04T11:11:46.611Z,56.78
2018-03-04T11:14:13.911Z,59.20
2018-03-04T11:16:40.204Z,56.23
2018-03-04T11:19:06.473Z,59.57
2018-03-04T11:21:33.760Z,53.30
2018-03-04T11:24:00.069Z,53.13
2018-03-04T11:26:26.411Z,58.47
2018-03-04T11:28:52.711Z,57.63
2018-03-04T11:31:19.071Z,52.70
2018-03-04T11:33:45.389Z,52.70
2018-03-04T11:36:14.897Z,56.30
2018-03-04T11:38:41.255Z,61.93
2018-03-04T11:41:07.539Z,55.63
2018-03-04T11:43:33.810Z,59.13
2018-03-04T11:46:00.109Z,61.40
2018-03-04T11:48:26.458Z,54.57
2018-03-04T11:50:52.976Z,60.77
2018-03-04T11:53:20.158Z,58.37
2018-03-04T11:55:46.588Z,64.87
2018-03-04T11:58:12.909Z,67.70
2018-03-04T12:00:39.223Z,63.00
2018-03-04T12:03:05.551Z,59.67
2018-03-04T12:05:31.872Z,62.03
2018-03-04T12:07:58.239Z,59.53
2018-03-04T12:10:24.488Z,60.73
2018-03-04T12:12:50.790Z,59.10
2018-03-04T12:15:17.095Z,60.10
2018-03-04T12:17:44.373Z,56.47
2018-03-04T12:20:10.649Z,53.27
2018-03-04T12:22:38.197Z,60.90
2018-03-04T12:25:05.512Z,63.67
2018-03-04T12:27:31.817Z,60.90
2018-03-04T12:29:58.165Z,63.93
2018-03-04T12:32:24.436Z,60.43
2018-03-04T12:34:50.772Z,58.57
2018-03-04T12:37:17.064Z,63.83
2018-03-04T12:39:44.086Z,64.73
2018-03-04T12:42:14.012Z,58.87
2018-03-04T12:44:40.854Z,58.33
2018-03-04T12:47:08.522Z,63.60
2018-03-04T12:49:34.825Z,62.60
2018-03-04T12:52:01.857Z,64.07
2018-03-04T12:54:28.137Z,57.23
2018-03-04T12:56:54.430Z,64.23
2018-03-04T12:59:21.449Z,63.10
2018-03-04T13:01:47.844Z,60.63
2018-03-04T13:04:14.225Z,60.33
2018-03-04T13:06:41.396Z,59.33
2018-03-04T13:09:07.886Z,68.53
2018-03-04T13:11:34.220Z,67.37
2018-03-04T13:14:01.551Z,58.57
2018-03-04T13:16:27.930Z,69.00
2018-03-04T13:18:55.262Z,68.80
2018-03-04T13:21:21.554Z,65.23
2018-03-04T13:23:47.848Z,59.93
2018-03-04T13:26:14.161Z,65.93
2018-03-04T13:28:40.534Z,60.93
2018-03-04T13:31:06.835Z,60.13
2018-03-04T13:33:33.156Z,63.77
2018-03-04T13:36:00.204Z,63.50
2018-03-04T13:38:26.492Z,62.20
2018-03-04T13:40:52.786Z,64.80
2018-03-04T13:43:19.091Z,67.10
2018-03-04T13:45:45.388Z,67.60
2018-03-04T13:48:11.652Z,72.83
2018-03-04T13:50:38.040Z,69.37
2018-03-04T13:53:04.340Z,63.70
2018-03-04T13:55:30.616Z,64.40
2018-03-04T13:57:56.934Z,72.30
2018-03-04T14:00:23.233Z,65.17
2018-03-04T14:02:49.539Z,68.80
2018-03-04T14:08:10.132Z,67.47
2018-03-04T14:10:36.499Z,64.40
2018-03-04T14:13:02.917Z,66.70
2018-03-04T14:15:29.326Z,62.80
2018-03-04T14:17:55.736Z,71.00
2018-03-04T14:20:22.846Z,63.47
2018-03-04T14:22:49.275Z,65.00
2018-03-04T14:25:16.458Z,58.37
2018-03-04T14:27:43.570Z,69.93
2018-03-04T14:30:10.017Z,68.00
2018-03-04T14:32:36.389Z,69.20
2018-03-04T14:35:03.584Z,66.97
2018-03-04T14:37:29.976Z,66.30
2018-03-04T14:39:56.396Z,63.63
2018-03-04T14:42:22.778Z,67.17
2018-03-04T14:44:49.180Z,65.60
2018-03-04T14:47:15.708Z,70.03
2018-03-04T14:49:42.102Z,71.23
2018-03-04T14:52:08.516Z,71.30
2018-03-04T14:54:34.899Z,66.47
2018-03-04T14:57:01.285Z,70.80
2018-03-04T14:59:28.368Z,71.13
2018-03-04T15:01:54.792Z,64.60
2018-03-04T15:04:21.922Z,59.60
2018-03-04T15:06:48.352Z,62.90
2018-03-04T15:09:14.736Z,67.47
2018-03-04T15:11:41.145Z,65.40
2018-03-04T15:14:07.508Z,66.93
2018-03-04T15:16:33.874Z,61.07
2018-03-04T15:19:00.268Z,66.37
2018-03-04T15:21:26.683Z,64.83
2018-03-04T15:23:53.848Z,68.07
2018-03-04T15:26:21.034Z,62.80
2018-03-04T15:28:47.417Z,68.27
2018-03-04T15:31:13.813Z,70.47
2018-03-04T15:33:40.189Z,67.07
2018-03-04T15:36:06.589Z,63.97
2018-03-04T15:38:33.716Z,70.50
2018-03-04T15:41:00.092Z,68.40
2018-03-04T15:43:27.234Z,65.67
2018-03-04T15:45:53.659Z,77.93
2018-03-04T15:48:20.041Z,67.10
2018-03-04T15:50:46.427Z,66.30
2018-03-04T15:53:13.593Z,70.17
2018-03-04T15:55:40.094Z,79.63
2018-03-04T15:58:06.471Z,70.63
2018-03-04T16:00:34.162Z,75.67
2018-03-04T16:03:01.544Z,67.70
2018-03-04T16:05:27.929Z,75.23
2018-03-04T16:07:54.296Z,65.57
2018-03-04T16:10:21.505Z,69.67
2018-03-04T16:12:47.933Z,65.60
2018-03-04T16:15:14.360Z,67.10
2018-03-04T16:17:40.737Z,65.33
2018-03-04T16:20:07.140Z,69.00
2018-03-04T16:22:33.605Z,68.67
2018-03-04T16:25:00.812Z,68.93
2018-03-04T16:27:27.224Z,73.10
2018-03-04T16:29:53.593Z,73.53
2018-03-04T16:32:19.972Z,74.37
2018-03-04T16:34:46.464Z,68.40
2018-03-04T16:37:12.792Z,70.23
2018-03-04T16:39:39.068Z,73.30
2018-03-04T16:42:05.325Z,68.60
2018-03-04T16:44:31.602Z,77.70
2018-03-04T16:46:58.660Z,72.90
2018-03-04T16:49:25.815Z,65.33
2018-03-04T16:51:52.153Z,70.80
2018-03-04T16:54:18.502Z,76.70
2018-03-04T16:56:45.864Z,73.87
2018-03-04T16:59:12.176Z,81.97
2018-03-04T17:01:38.608Z,75.73
2018-03-04T17:04:05.060Z,73.73
2018-03-04T17:06:31.332Z,72.80
2018-03-04T17:08:57.713Z,76.27
2018-03-04T17:11:24.006Z,75.13
2018-03-04T17:13:51.142Z,72.87
2018-03-04T17:16:17.421Z,77.20
2018-03-04T17:18:43.731Z,77.40
2018-03-04T17:21:09.984Z,76.63
2018-03-04T17:23:36.296Z,74.33
2018-03-04T17:26:02.654Z,81.10
2018-03-04T17:28:28.965Z,72.00
2018-03-04T17:30:55.219Z,75.27
2018-03-04T17:33:21.543Z,79.63
2018-03-04T17:35:47.807Z,78.57
2018-03-04T17:38:14.113Z,71.20
2018-03-04T17:40:40.400Z,79.53
2018-03-04T17:43:06.698Z,77.97
2018-03-04T17:45:32.972Z,73.80
2018-03-04T17:47:59.288Z,73.80
2018-03-04T17:50:25.572Z,68.47
2018-03-04T17:52:51.865Z,78.87
2018-03-04T17:55:18.193Z,75.87
2018-03-04T17:57:44.553Z,82.40
2018-03-04T18:00:10.823Z,78.37
2018-03-04T18:02:37.842Z,68.07
2018-03-04T18:05:04.120Z,70.67
2018-03-04T18:07:30.431Z,80.27
2018-03-04T18:09:57.781Z,78.17
2018-03-04T18:12:24.817Z,67.67
2018-03-04T18:14:51.704Z,70.53
2018-03-04T18:17:17.995Z,68.43
2018-03-04T18:19:44.987Z,72.80
2018-03-04T18:22:11.259Z,73.80
2018-03-04T18:24:37.529Z,76.07
2018-03-04T18:27:03.812Z,77.40
2018-03-04T18:29:30.080Z,78.83
2018-03-04T18:31:56.352Z,68.53
2018-03-04T18:34:22.618Z,88.60
2018-03-04T18:36:49.655Z,90.83
2018-03-04T18:39:15.965Z,82.97
2018-03-04T18:41:42.297Z,80.53
2018-03-04T18:44:08.577Z,71.03
2018-03-04T18:46:36.590Z,77.90
2018-03-04T18:49:02.948Z,77.40
2018-03-04T18:51:29.615Z,78.73
2018-03-04T18:53:57.037Z,81.83
2018-03-04T18:56:40.963Z,82.67
2018-03-04T18:59:07.225Z,86.63
2018-03-04T19:01:34.421Z,80.23
2018-03-04T19:04:00.712Z,85.97
2018-03-04T19:06:27.041Z,73.50
2018-03-04T19:08:54.082Z,75.60
2018-03-04T19:11:21.123Z,75.67
2018-03-04T19:13:47.465Z,78.17
2018-03-04T19:16:14.752Z,74.90
2018-03-04T19:18:42.014Z,80.93
2018-03-04T19:21:08.516Z,71.93
2018-03-04T19:23:34.922Z,73.00
2018-03-04T19:26:01.231Z,76.83
2018-03-04T19:28:27.564Z,73.43
2018-03-04T19:30:53.904Z,75.33
2018-03-04T19:33:20.243Z,78.10
2018-03-04T19:35:46.513Z,73.13
2018-03-04T19:38:12.832Z,79.93
2018-03-04T19:40:39.841Z,76.63
2018-03-04T19:43:06.157Z,86.17
2018-03-04T19:45:32.436Z,75.07
2018-03-04T19:47:58.785Z,86.93
2018-03-04T19:50:25.064Z,88.57
2018-03-04T19:52:51.372Z,74.10
2018-03-04T19:55:17.719Z,75.70
2018-03-04T19:57:44.358Z,73.97
2018-03-04T20:00:10.611Z,77.93
2018-03-04T20:02:37.679Z,74.30
2018-03-04T20:05:03.958Z,71.70
2018-03-04T20:07:30.344Z,68.13
2018-03-04T20:09:57.336Z,79.17
2018-03-04T20:12:23.634Z,71.73
2018-03-04T20:14:50.010Z,79.27
2018-03-04T20:17:17.060Z,73.33
2018-03-04T20:19:43.336Z,72.50
2018-03-04T20:22:09.643Z,81.63
2018-03-04T20:24:36.696Z,70.87
2018-03-04T20:27:03.423Z,70.43
2018-03-04T20:29:33.285Z,68.43
2018-03-04T20:32:01.295Z,79.47
2018-03-04T20:34:27.588Z,75.93
2018-03-04T20:36:53.959Z,70.57
2018-03-04T20:39:20.309Z,74.40
2018-03-04T20:41:46.736Z,73.90
2018-03-04T20:44:13.798Z,69.70
2018-03-04T20:46:40.192Z,74.33
2018-03-04T20:49:06.481Z,71.73
2018-03-04T20:51:33.568Z,68.40
2018-03-04T20:53:59.904Z,74.33
2018-03-04T20:56:26.248Z,72.37
2018-03-04T20:58:52.650Z,70.53
2018-03-04T21:01:19.093Z,67.13
2018-03-04T21:03:45.364Z,61.07
2018-03-04T21:06:11.763Z,66.10
2018-03-04T21:08:38.065Z,70.77
2018-03-04T21:11:04.417Z,70.87
2018-03-04T21:13:30.737Z,67.23
2018-03-04T21:15:57.131Z,72.33
2018-03-04T21:18:23.456Z,66.97
2018-03-04T21:20:49.812Z,65.10
2018-03-04T21:23:16.121Z,68.70
2018-03-04T21:25:42.501Z,59.93
2018-03-04T21:28:08.868Z,65.90
2018-03-04T21:30:37.012Z,65.10
2018-03-04T21:33:03.351Z,72.27
2018-03-04T21:35:29.717Z,68.80
2018-03-04T21:37:55.989Z,71.03
2018-03-04T21:40:22.288Z,66.47
2018-03-04T21:42:48.665Z,64.60
2018-03-04T21:45:14.955Z,64.45
2018-03-04T21:47:41.256Z,61.00
2018-03-04T21:50:07.526Z,69.63
2018-03-04T21:52:33.813Z,66.53
2018-03-04T21:55:00.120Z,57.80
2018-03-04T21:57:26.425Z,66.77
2018-03-04T21:59:52.722Z,59.33
2018-03-04T22:02:20.030Z,64.83
2018-03-04T22:04:46.312Z,68.03
2018-03-04T22:07:12.652Z,58.00
2018-03-04T22:09:38.920Z,60.63
2018-03-04T22:12:05.328Z,61.80
2018-03-04T22:14:31.623Z,55.57
2018-03-04T22:16:57.912Z,54.80
2018-03-04T22:19:24.178Z,60.87
2018-03-04T22:21:50.481Z,58.60
2018-03-04T22:24:16.775Z,62.33
2018-03-04T22:26:43.180Z,50.60
2018-03-04T22:29:09.498Z,58.27
2018-03-04T22:31:35.879Z,59.50
2018-03-04T22:34:02.166Z,56.03
2018-03-04T22:36:28.457Z,59.97
2018-03-04T22:38:54.719Z,59.10
2018-03-04T22:41:21.025Z,53.60
2018-03-04T22:43:48.037Z,56.10
2018-03-04T22:46:15.359Z,51.63
2018-03-04T22:48:41.689Z,57.03
2018-03-04T22:51:08.023Z,54.43
2018-03-04T22:53:34.354Z,59.60
2018-03-04T22:56:03.805Z,57.57
2018-03-04T22:58:32.877Z,62.23
2018-03-04T23:00:59.266Z,57.33
2018-03-04T23:03:25.609Z,58.10
2018-03-04T23:05:52.060Z,54.00
2018-03-04T23:08:18.496Z,57.83
2018-03-04T23:10:45.035Z,53.93
2018-03-04T23:13:11.451Z,57.50
2018-03-04T23:15:37.888Z,63.90
2018-03-04T23:18:04.229Z,51.80
2018-03-04T23:20:30.891Z,58.20
2018-03-04T23:22:57.412Z,62.00
2018-03-04T23:25:23.810Z,56.40
2018-03-04T23:27:50.256Z,52.87
2018-03-04T23:30:16.680Z,50.30
2018-03-04T23:32:43.063Z,56.53
2018-03-04T23:35:09.538Z,56.73
2018-03-04T23:37:35.884Z,51.90
2018-03-04T23:40:02.337Z,53.87
2018-03-04T23:42:28.743Z,51.07
2018-03-04T23:44:55.201Z,64.80
2018-03-04T23:47:21.627Z,47.67
2018-03-04T23:49:48.037Z,61.97
2018-03-04T23:52:14.379Z,54.27
2018-03-04T23:54:40.704Z,57.37
2018-03-04T23:57:07.166Z,59.37
2018-03-04T23:59:33.569Z,60.17
